Clupea (Germany) — DBFN — position and weather

sailwx.info

Track history (hours):
 
Tides and Currents Weather Stations Pressure Air Temp Water Temp Dewpoint Dewpoint Depression Visibility Wind Speed Wind Dir Waves Ship Positions

Oceanographic research ship Clupea (Germany) (Germany)

Detailed information on ship capabilities available from University of Delaware's Ocean Information Center.

Last reported at 2018-Oct-10 11:49 UTC. Time now 2018-Dec-13 00:31 UTC.
Position N 54°31' E 011°19'.
Warning: this ship's position is months out of date.

Length 17.6 m; beam 5.1 m; draft 2 m.

MMSI: 211586760.

Date/timePositionNaut miles runAvg speedWind from/ knotsBaromVisibWave heightAir tempDewpointWater temp
2018-Oct-10 11:49N 54°31' E 011°19'1 2.7
2018-Oct-10 11:27N 54°32' E 011°19'1 2.7
2018-Oct-10 11:03N 54°33' E 011°19'0 0.7
2018-Oct-10 10:58N 54°33' E 011°19'1 2.2
2018-Oct-10 10:30N 54°34' E 011°20'0 0.3
2018-Oct-10 10:03N 54°35' E 011°20'0 1.2
2018-Oct-10 10:00N 54°34' E 011°20'0 0.7
2018-Oct-10 09:28N 54°34' E 011°20'1 2.1
2018-Oct-10 09:03N 54°33' E 011°19'0 1.1
2018-Oct-10 09:00N 54°33' E 011°19'1 1.9
2018-Oct-10 08:30N 54°32' E 011°19'1 2.2
2018-Oct-10 08:02N 54°31' E 011°19'0 1.3
2018-Oct-10 07:59N 54°31' E 011°19'7 0.3
2018-Oct-09 09:41N 54°34' E 011°07'1 7.7
2018-Oct-09 09:31N 54°35' E 011°08'2 5.3
2018-Oct-09 09:04N 54°38' E 011°09'0 1.0
2018-Oct-09 09:01N 54°38' E 011°09'3 5.4
2018-Oct-09 08:31N 54°39' E 011°13'2 4.1
2018-Oct-09 08:03N 54°40' E 011°16'0 2.1
2018-Oct-09 08:00N 54°40' E 011°16'3 6.4
2018-Oct-09 07:30N 54°38' E 011°20'1 1.9
2018-Oct-09 07:03N 54°39' E 011°20'0 5.8
2018-Oct-09 07:01N 54°39' E 011°21'0 0.9
2018-Oct-09 06:31N 54°39' E 011°21'0 0.0
2018-Oct-09 06:04N 54°39' E 011°21'0 0.0
2018-Oct-09 06:01N 54°39' E 011°21'0 0.0
2018-Oct-09 05:31N 54°39' E 011°21'0 0.0
2018-Oct-09 05:03N 54°39' E 011°21'0 0.0
2018-Oct-09 05:01N 54°39' E 011°21'0 0.0
2018-Oct-09 04:30N 54°39' E 011°21'0 0.0
2018-Oct-09 04:03N 54°39' E 011°21'0 0.0
2018-Oct-09 04:01N 54°39' E 011°21'0 0.0
2018-Oct-09 03:31N 54°39' E 011°21'0 0.0
2018-Oct-09 03:04N 54°39' E 011°21'0 0.0
2018-Oct-09 03:01N 54°39' E 011°21'0 0.0
2018-Oct-09 02:31N 54°39' E 011°21'0 0.0
2018-Oct-09 02:04N 54°39' E 011°21'0 0.0
2018-Oct-09 02:01N 54°39' E 011°21'0 0.0
2018-Oct-09 01:30N 54°39' E 011°21'0 0.0
2018-Oct-09 01:03N 54°39' E 011°21'0 0.1
2018-Oct-09 01:01N 54°39' E 011°21'0 0.0
2018-Oct-09 00:31N 54°39' E 011°21'0 0.0
2018-Oct-09 00:03N 54°39' E 011°21'0 0.0
2018-Oct-09 00:00N 54°39' E 011°21'0 0.0
2018-Oct-08 23:30N 54°39' E 011°21'0 0.0
2018-Oct-08 23:03N 54°39' E 011°21'0 0.0
2018-Oct-08 23:01N 54°39' E 011°21'0 0.0
2018-Oct-08 22:29N 54°39' E 011°21'0 0.0
2018-Oct-08 22:03N 54°39' E 011°21'0 0.0
2018-Oct-08 22:00N 54°39' E 011°21'0 0.0
2018-Oct-08 21:30N 54°39' E 011°21'0 0.0
2018-Oct-08 21:04N 54°39' E 011°21'0 0.0
2018-Oct-08 21:00N 54°39' E 011°21'0 0.0
2018-Oct-08 20:31N 54°39' E 011°21'0 0.0
2018-Oct-08 20:03N 54°39' E 011°21'0 0.0
2018-Oct-08 20:01N 54°39' E 011°21'0 0.0
2018-Oct-08 19:30N 54°39' E 011°21'0 0.0
2018-Oct-08 19:03N 54°39' E 011°21'0 0.1
2018-Oct-08 19:00N 54°39' E 011°21'0 0.0
2018-Oct-08 18:31N 54°39' E 011°21'0 0.0
2018-Oct-08 18:04N 54°39' E 011°21'0 0.1
2018-Oct-08 18:00N 54°39' E 011°21'0 0.0
2018-Oct-08 17:31N 54°39' E 011°21'0 0.0
2018-Oct-08 17:03N 54°39' E 011°21'0 0.1
2018-Oct-08 17:00N 54°39' E 011°21'0 0.0
2018-Oct-08 16:31N 54°39' E 011°21'0 0.0
2018-Oct-08 16:03N 54°39' E 011°21'0 1.3
2018-Oct-08 16:01N 54°39' E 011°21'3 5.1
2018-Oct-08 15:30N 54°37' E 011°22'1 2.4
2018-Oct-08 14:55N 54°35' E 011°22'3 4.4
2018-Oct-08 14:11N 54°36' E 011°16'0 0.1
2018-Oct-08 14:00N 54°36' E 011°16'2 4.9
2018-Oct-08 13:30N 54°35' E 011°13'3 6.3
2018-Oct-08 13:04N 54°34' E 011°18'0 5.9
2018-Oct-08 13:01N 54°34' E 011°19'1 2.5
2018-Oct-08 12:31N 54°33' E 011°19'  
Track history (hours):
 
Tides and Currents Weather Stations Pressure Air Temp Water Temp Dewpoint Dewpoint Depression Visibility Wind Speed Wind Dir Waves Ship Positions

Oceanographic research ship Clupea (Germany) (Germany)

Detailed information on ship capabilities available from University of Delaware's Ocean Information Center.

Last reported at 2018-Oct-10 11:49 UTC. Time now 2018-Dec-13 00:31 UTC.
Position N 54°31' E 011°19'.
Warning: this ship's position is months out of date.

Length 17.6 m; beam 5.1 m; draft 2 m.

MMSI: 211586760.

Date/timePositionNaut miles runAvg speedWind from/ knotsBaromVisibWave heightAir tempDewpointWater temp
2018-Oct-10 11:49N 54°31' E 011°19'1 2.7
2018-Oct-10 11:27N 54°32' E 011°19'1 2.7
2018-Oct-10 11:03N 54°33' E 011°19'0 0.7
2018-Oct-10 10:58N 54°33' E 011°19'1 2.2
2018-Oct-10 10:30N 54°34' E 011°20'0 0.3
2018-Oct-10 10:03N 54°35' E 011°20'0 1.2
2018-Oct-10 10:00N 54°34' E 011°20'0 0.7
2018-Oct-10 09:28N 54°34' E 011°20'1 2.1
2018-Oct-10 09:03N 54°33' E 011°19'0 1.1
2018-Oct-10 09:00N 54°33' E 011°19'1 1.9
2018-Oct-10 08:30N 54°32' E 011°19'1 2.2
2018-Oct-10 08:02N 54°31' E 011°19'0 1.3
2018-Oct-10 07:59N 54°31' E 011°19'7 0.3
2018-Oct-09 09:41N 54°34' E 011°07'1 7.7
2018-Oct-09 09:31N 54°35' E 011°08'2 5.3
2018-Oct-09 09:04N 54°38' E 011°09'0 1.0
2018-Oct-09 09:01N 54°38' E 011°09'3 5.4
2018-Oct-09 08:31N 54°39' E 011°13'2 4.1
2018-Oct-09 08:03N 54°40' E 011°16'0 2.1
2018-Oct-09 08:00N 54°40' E 011°16'3 6.4
2018-Oct-09 07:30N 54°38' E 011°20'1 1.9
2018-Oct-09 07:03N 54°39' E 011°20'0 5.8
2018-Oct-09 07:01N 54°39' E 011°21'0 0.9
2018-Oct-09 06:31N 54°39' E 011°21'0 0.0
2018-Oct-09 06:04N 54°39' E 011°21'0 0.0
2018-Oct-09 06:01N 54°39' E 011°21'0 0.0
2018-Oct-09 05:31N 54°39' E 011°21'0 0.0
2018-Oct-09 05:03N 54°39' E 011°21'0 0.0
2018-Oct-09 05:01N 54°39' E 011°21'0 0.0
2018-Oct-09 04:30N 54°39' E 011°21'0 0.0
2018-Oct-09 04:03N 54°39' E 011°21'0 0.0
2018-Oct-09 04:01N 54°39' E 011°21'0 0.0
2018-Oct-09 03:31N 54°39' E 011°21'0 0.0
2018-Oct-09 03:04N 54°39' E 011°21'0 0.0
2018-Oct-09 03:01N 54°39' E 011°21'0 0.0
2018-Oct-09 02:31N 54°39' E 011°21'0 0.0
2018-Oct-09 02:04N 54°39' E 011°21'0 0.0
2018-Oct-09 02:01N 54°39' E 011°21'0 0.0
2018-Oct-09 01:30N 54°39' E 011°21'0 0.0
2018-Oct-09 01:03N 54°39' E 011°21'0 0.1
2018-Oct-09 01:01N 54°39' E 011°21'0 0.0
2018-Oct-09 00:31N 54°39' E 011°21'0 0.0
2018-Oct-09 00:03N 54°39' E 011°21'0 0.0
2018-Oct-09 00:00N 54°39' E 011°21'0 0.0
2018-Oct-08 23:30N 54°39' E 011°21'0 0.0
2018-Oct-08 23:03N 54°39' E 011°21'0 0.0
2018-Oct-08 23:01N 54°39' E 011°21'0 0.0
2018-Oct-08 22:29N 54°39' E 011°21'0 0.0
2018-Oct-08 22:03N 54°39' E 011°21'0 0.0
2018-Oct-08 22:00N 54°39' E 011°21'0 0.0
2018-Oct-08 21:30N 54°39' E 011°21'0 0.0
2018-Oct-08 21:04N 54°39' E 011°21'0 0.0
2018-Oct-08 21:00N 54°39' E 011°21'0 0.0
2018-Oct-08 20:31N 54°39' E 011°21'0 0.0
2018-Oct-08 20:03N 54°39' E 011°21'0 0.0
2018-Oct-08 20:01N 54°39' E 011°21'0 0.0
2018-Oct-08 19:30N 54°39' E 011°21'0 0.0
2018-Oct-08 19:03N 54°39' E 011°21'0 0.1
2018-Oct-08 19:00N 54°39' E 011°21'0 0.0
2018-Oct-08 18:31N 54°39' E 011°21'0 0.0
2018-Oct-08 18:04N 54°39' E 011°21'0 0.1
2018-Oct-08 18:00N 54°39' E 011°21'0 0.0
2018-Oct-08 17:31N 54°39' E 011°21'0 0.0
2018-Oct-08 17:03N 54°39' E 011°21'0 0.1
2018-Oct-08 17:00N 54°39' E 011°21'0 0.0
2018-Oct-08 16:31N 54°39' E 011°21'0 0.0
2018-Oct-08 16:03N 54°39' E 011°21'0 1.3
2018-Oct-08 16:01N 54°39' E 011°21'3 5.1
2018-Oct-08 15:30N 54°37' E 011°22'1 2.4
2018-Oct-08 14:55N 54°35' E 011°22'3 4.4
2018-Oct-08 14:11N 54°36' E 011°16'0 0.1
2018-Oct-08 14:00N 54°36' E 011°16'2 4.9
2018-Oct-08 13:30N 54°35' E 011°13'3 6.3
2018-Oct-08 13:04N 54°34' E 011°18'0 5.9
2018-Oct-08 13:01N 54°34' E 011°19'1 2.5
2018-Oct-08 12:31N 54°33' E 011°19'  

Dump ship's entire track history